Flight Track Log - Related Links

Times and Time Zones

All times are in EDT time to prevent confusion due to time zone crossing. See the RPA1631 flight status page for this flight to view local times or setup timezone preferences in your user account.

Time Position Orientation Groundspeed Altitude Reporting Facility
EDT Latitude Longitude Course Direction KTS MPH feet Rate Location/Type
Sun 09:05:04 AM 43.1742 -89.3656 270° West 155 178 2,800  Level Chicago Center
Sun 09:06:05 AM 43.1719 -89.4500 268° West 222 255 4,500 2,585 Climbing Chicago Center
Sun 09:07:07 AM 43.1725 -89.5581 270° West 272 313 8,100 3,122 Climbing Chicago Center
Sun 09:08:08 AM 43.1708 -89.6669 269° West 284 327 10,900 2,634 Climbing Chicago Center
Sun 09:09:10 AM 43.1697 -89.8219 269° West 348 400 13,500 2,537 Climbing Chicago Center
Sun 09:10:00 AM 43.1333 -90.2056 270° West  Level FlightAware Approximate
Sun 09:10:11 AM 43.1683 -89.9569 269° West 354 407 16,100  Level Chicago Center
Sun 09:11:13 AM 43.1675 -90.1006 270° West 373 429 18,800 2,516 Climbing Chicago Center
Sun 09:12:15 AM 43.1669 -90.2442 270° West 376 433 21,300 2,098 Climbing Chicago Center
Sun 09:13:16 AM 43.1644 -90.3833 269° West 382 440 23,100 1,659 Climbing Chicago Center
Sun 09:14:18 AM 43.1628 -90.5344 269° West 398 458 24,700 1,714 Climbing Chicago Center
Sun 09:15:15 AM 43.1603 -90.6900 269° West 410 472 26,500 1,627 Climbing Minneapolis Center
Sun 09:16:16 AM 43.1586 -90.8467 269° West 415 478 27,900 1,377 Climbing Minneapolis Center
Sun 09:17:17 AM 43.1567 -91.0064 269° West 422 486 29,300 1,672 Climbing Minneapolis Center
Sun 09:18:18 AM 43.1547 -91.1647 269° West 422 486 31,300 1,869 Climbing Minneapolis Center
Sun 09:19:19 AM 43.1508 -91.3500 268° West 413 475 33,100 1,328 Climbing Minneapolis Center
Sun 09:20:20 AM 43.1478 -91.5033 268° West 411 473 34,000 446 Climbing Minneapolis Center
Sun 09:21:20 AM 43.1444 -91.6617 268° West 419 482 34,000  Level Minneapolis Center
Sun 09:22:21 AM 43.1394 -91.8208 268° West 426 490 34,000  Level Minneapolis Center
Sun 09:23:22 AM 43.1361 -91.9775 268° West 423 487 34,000  Level Minneapolis Center
Sun 09:24:23 AM 43.1317 -92.1328 268° West 416 479 34,000  Level Minneapolis Center
Sun 09:25:24 AM 43.1283 -92.2903 268° West 418 481 34,000  Level Minneapolis Center
Sun 09:26:25 AM 43.1225 -92.4828 268° West 426 490 34,000  Level Minneapolis Center
Sun 09:27:26 AM 43.1178 -92.6422 268° West 425 489 34,000  Level Minneapolis Center
Sun 09:28:27 AM 43.1125 -92.8006 267° West 423 487 34,000  Level Minneapolis Center
Sun 09:29:28 AM 43.1078 -92.9600 268° West 423 487 34,000  Level Minneapolis Center
Sun 09:30:29 AM 43.1033 -93.0869 267° West 422 486 34,000  Level Minneapolis Center
Sun 09:31:30 AM 43.0939 -93.2783 266° West 423 487 34,000  Level Minneapolis Center
Sun 09:32:43 AM 43.0836 -93.4400 265° West 427 491 34,000  Level Minneapolis Center
Sun 09:33:44 AM 43.0653 -93.6319 263° West 427 491 34,000  Level Minneapolis Center
Sun 09:34:45 AM 43.0467 -93.8225 262° West 426 490 34,000  Level Minneapolis Center
Sun 09:35:46 AM 43.0336 -93.9819 264° West 427 491 34,000  Level Minneapolis Center
Sun 09:36:47 AM 43.0167 -94.1433 262° West 430 495 34,000  Level Minneapolis Center
Sun 09:37:48 AM 43.0031 -94.2989 263° West 424 488 34,000  Level Minneapolis Center
Sun 09:38:49 AM 42.9864 -94.4581 262° West 426 490 34,000  Level Minneapolis Center
Sun 09:39:50 AM 42.9681 -94.6203 261° West 425 489 34,000  Level Minneapolis Center
Sun 09:40:51 AM 42.9519 -94.7808 262° West 426 490 34,000  Level Minneapolis Center
Sun 09:41:52 AM 42.9350 -94.9392 262° West 425 489 34,000  Level Minneapolis Center
Sun 09:42:53 AM 42.9181 -95.1000 262° West 427 491 34,000  Level Minneapolis Center
Sun 09:43:54 AM 42.9000 -95.2592 261° West 426 490 34,000  Level Minneapolis Center
Sun 09:44:55 AM 42.8792 -95.4508 262° West 426 490 34,000  Level Minneapolis Center
Sun 09:45:56 AM 42.8611 -95.6103 261° West 426 490 34,000  Level Minneapolis Center
Sun 09:46:57 AM 42.8436 -95.7703 262° West 427 491 34,000  Level Minneapolis Center
Sun 09:47:58 AM 42.8244 -95.9286 261° West 425 489 34,000  Level Minneapolis Center
Sun 09:48:59 AM 42.8058 -96.0878 261° West 426 490 34,000  Level Minneapolis Center
Sun 09:50:00 AM 42.7869 -96.2486 261° West 429 494 34,000  Level Minneapolis Center
Sun 09:51:01 AM 42.7689 -96.4064 261° West 425 489 34,000  Level Minneapolis Center
Sun 09:52:14 AM 42.7492 -96.5656 260° West 425 489 34,000  Level Minneapolis Center
Sun 09:53:16 AM 42.7261 -96.7533 261° West 421 484 34,000  Level Minneapolis Center
Sun 09:54:17 AM 42.7072 -96.9103 261° West 421 484 34,000  Level Minneapolis Center
Sun 09:55:18 AM 42.6853 -97.0794 260° West 421 484 34,000  Level Minneapolis Center
Sun 09:56:19 AM 42.6661 -97.2339 260° West 417 480 34,000  Level Minneapolis Center
Sun 09:57:20 AM 42.6458 -97.3894 260° West 418 481 34,000  Level Minneapolis Center
Sun 09:58:33 AM 42.6253 -97.5450 260° West 420 483 34,000  Level Minneapolis Center
Sun 09:59:34 AM 42.6011 -97.7314 260° West 419 482 34,000  Level Minneapolis Center
Sun 10:00:35 AM 42.5783 -97.8975 260° West 414 476 34,000  Level Minneapolis Center
Sun 10:01:37 AM 42.5575 -98.0517 260° West 416 479 34,000  Level Minneapolis Center
Sun 10:02:38 AM 42.5378 -98.2072 260° West 418 481 34,000  Level Minneapolis Center
Sun 10:03:51 AM 42.5161 -98.3647 259° West 424 488 34,000  Level Minneapolis Center
Sun 10:04:52 AM 42.4903 -98.5483 259° West 417 480 34,000  Level Minneapolis Center
Sun 10:05:53 AM 42.4631 -98.6989 256° West 414 476 34,000  Level Minneapolis Center
Sun 10:06:54 AM 42.4022 -98.8397 240° Southwest 434 499 34,000  Level Minneapolis Center
Sun 10:07:55 AM 42.3275 -99.0075 239° Southwest 434 499 34,000  Level Minneapolis Center
Sun 10:08:57 AM 42.2653 -99.1469 239° Southwest 435 501 34,000  Level Minneapolis Center
Sun 10:09:58 AM 42.2006 -99.2867 238° Southwest 438 504 34,000  Level Minneapolis Center
Sun 10:10:59 AM 42.1372 -99.4275 239° Southwest 440 506 34,000  Level Minneapolis Center
Sun 10:11:26 AM 42.1114 -99.4839 238° Southwest 439 505 34,000  Level Denver Center
Sun 10:12:27 AM 42.0483 -99.6231 239° Southwest 436 502 34,000  Level Denver Center
Sun 10:13:28 AM 41.9794 -99.7697 238° Southwest 434 499 34,000  Level Denver Center
Sun 10:14:30 AM 41.9192 -99.9039 239° Southwest 438 504 34,000  Level Denver Center
Sun 10:15:31 AM 41.8467 -100.0581 238° Southwest 438 504 34,000  Level Denver Center
Sun 10:16:33 AM 41.7850 -100.1903 238° Southwest 439 505 34,000  Level Denver Center
Sun 10:17:34 AM 41.7122 -100.3442 238° Southwest 440 506 34,000  Level Denver Center
Sun 10:18:36 AM 41.6489 -100.4772 238° Southwest 442 509 34,000  Level Denver Center
Sun 10:19:37 AM 41.5767 -100.6317 238° Southwest 442 509 34,000  Level Denver Center
Sun 10:20:39 AM 41.5183 -100.7661 240° Southwest 440 506 34,000  Level Denver Center
Sun 10:21:41 AM 41.4689 -100.9297 248° West 430 495 34,000  Level Denver Center
Sun 10:22:42 AM 41.4239 -101.0719 247° West 436 502 34,000  Level Denver Center
Sun 10:23:44 AM 41.3817 -101.2131 248° West 432 497 34,000  Level Denver Center
Sun 10:24:46 AM 41.3336 -101.3756 249° West 426 490 34,000  Level Denver Center
Sun 10:25:47 AM 41.2900 -101.5164 248° West 431 496 34,000  Level Denver Center
Sun 10:26:49 AM 41.2386 -101.6800 247° West 431 496 34,000  Level Denver Center
Sun 10:27:51 AM 41.1944 -101.8217 248° West 435 501 34,000  Level Denver Center
Sun 10:28:53 AM 41.1431 -101.9850 247° West 431 496 34,000  Level Denver Center
Sun 10:29:55 AM 41.0994 -102.1256 248° West 432 497 34,000  Level Denver Center
Sun 10:30:56 AM 41.0481 -102.2892 247° West 432 497 34,000  Level Denver Center
Sun 10:31:58 AM 41.0042 -102.4289 247° West 431 496 34,000  Level Denver Center
Sun 10:33:00 AM 40.9522 -102.5931 247° West 434 499 34,000  Level Denver Center
Sun 10:34:02 AM 40.9072 -102.7339 247° West 435 501 34,000  Level Denver Center
Sun 10:35:04 AM 40.8619 -102.8742 247° West 436 502 34,000  Level Denver Center
Sun 10:36:06 AM 40.8083 -103.0431 247° West 438 504 34,000 -435 Level Denver Center
Sun 10:37:08 AM 40.7606 -103.1917 247° West 436 502 33,100 -1,548 Descending Denver Center
Sun 10:38:10 AM 40.7106 -103.3392 246° West 437 503 30,800 -2,244 Descending Denver Center
Sun 10:39:11 AM 40.6622 -103.4858 247° West 434 499 28,500 -2,195 Descending Denver Center
Sun 10:40:13 AM 40.6178 -103.6219 247° West 404 465 26,300 -2,081 Descending Denver Center
Sun 10:41:15 AM 40.5550 -103.7375 234° Southwest 388 447 24,200 -2,129 Descending Denver Center
Sun 10:42:17 AM 40.4689 -103.8522 225° Southwest 373 429 21,900 -1,984 Descending Denver Center
Sun 10:43:19 AM 40.3997 -103.9489 227° Southwest 354 407 20,100 -1,694 Descending Denver Center
Sun 10:44:21 AM 40.3569 -104.0489 241° Southwest 318 366 18,400 -1,500 Descending Denver Center
Sun 10:45:23 AM 40.3550 -104.1525 269° West 283 326 17,000 -1,355 Descending Denver Center
Sun 10:46:25 AM 40.3544 -104.2603 270° West 275 316 15,600 -1,306 Descending Denver Center
Sun 10:47:27 AM 40.3528 -104.3497 269° West 251 289 14,300 -1,306 Descending Denver Center
Sun 10:48:29 AM 40.3389 -104.4464 259° West 252 290 12,900 -1,161 Descending Denver Center
Sun 10:49:31 AM 40.3219 -104.5311 255° West 243 280 11,900 -1,113 Descending Denver Center
Sun 10:50:33 AM 40.2583 -104.5783 210° Southwest 248 285 10,600 -1,306 Descending Denver Center
Sun 10:51:35 AM 40.1972 -104.6200 208° Southwest 249 287 9,200 -1,258 Descending Denver Center
Sun 10:52:37 AM 40.1381 -104.6622 209° Southwest 244 281 8,000 -581 Descending Denver Center
Sun 10:53:39 AM 40.0761 -104.6858 196° South 217 250 8,000 -195 Level Denver Center
Sun 10:54:40 AM 40.0144 -104.6856 180° South 221 254 7,600 -732 Descending Denver Center
Sun 10:55:42 AM 39.9575 -104.6861 180° South 189 217 6,500 -871 Descending Denver Center
Sun 10:56:44 AM 39.9186 -104.6864 180° South 143 165 5,800 -532 Descending Denver Center
Sun 10:57:46 AM 39.8822 -104.6869 181° South 132 152 5,400 -387 Descending Denver Center
Sun 10:59:00 AM 39.8617 -104.6732 190° South  Level Estimated
Sun 11:06:00 AM 39.8617 -104.6732 190° South  Level Estimated
Sun 11:07:00 AM 39.8617 -104.6732 190° South  Level Estimated
Sun 11:08:00 AM 39.8617 -104.6732 190° South  Level Estimated

Login

Don't have an account? Register now (free) for customized features, flight alerts, and more!